Time;durP1;ratioP1;P1;durP2;ratioP2;P2;SDS_P1;SDS_P2;PMS_P1;PMS_P2;Temp;Humidity;BMP_temperature;BMP_pressure;BME280_temperature;BME280_humidity;BME280_pressure;Samples;Min_cycle;Max_cycle;Signal;HPM_P1;HPM_P2
2022/02/03 00:02:12;;;;;;;3.38;1.85;;;10.50;90.30;;;;;;5062097;28;20077;-66
2022/02/03 00:04:54;;;;;;;3.47;2.53;;;10.50;90.60;;;;;;5092891;28;20101;-66
2022/02/03 00:07:30;;;;;;;4.40;1.40;;;10.60;91.00;;;;;;5089545;28;20043;-65
2022/02/03 00:26:23;;;;;;;7.38;1.63;;;10.40;90.30;;;;;;5092725;28;20053;-65
2022/02/03 00:28:51;;;;;;;3.03;1.85;;;10.40;90.00;;;;;;5083418;28;20040;-65
2022/02/03 00:34:35;;;;;;;3.53;1.80;;;10.40;90.10;;;;;;4994636;28;20057;-65
2022/02/03 00:37:11;;;;;;;5.10;1.38;;;10.40;89.90;;;;;;5010160;28;20046;-67
2022/02/03 00:48:20;;;;;;;1.87;1.37;;;10.50;86.80;;;;;;5092283;28;20043;-67
2022/02/03 00:50:50;;;;;;;1.88;1.10;;;10.50;85.00;;;;;;5100482;28;20050;-65
2022/02/03 00:53:22;;;;;;;2.55;1.77;;;10.40;83.50;;;;;;5082794;28;20490;-66
2022/02/03 00:55:53;;;;;;;2.10;1.15;;;10.30;83.60;;;;;;5086974;28;20509;-66
2022/02/03 00:58:25;;;;;;;2.47;1.38;;;10.40;83.70;;;;;;5078636;27;20046;-65
2022/02/03 01:00:58;;;;;;;1.63;0.88;;;10.30;83.10;;;;;;5090991;28;20122;-65
2022/02/03 01:03:28;;;;;;;3.38;1.85;;;10.40;84.00;;;;;;5074184;28;20401;-65
2022/02/03 01:05:59;;;;;;;2.05;1.00;;;10.30;84.70;;;;;;5123122;27;20039;-65
2022/02/03 01:08:30;;;;;;;4.10;1.67;;;10.30;85.80;;;;;;5122523;27;20126;-65
2022/02/03 01:11:13;;;;;;;4.90;1.35;;;10.30;86.20;;;;;;5109663;28;20629;-66
2022/02/03 01:43:42;;;;;;;3.95;1.40;;;10.40;91.00;;;;;;5111185;28;20076;-66
2022/02/03 01:46:16;;;;;;;5.15;1.48;;;10.40;91.30;;;;;;5124600;28;20073;-68
2022/02/03 01:54:06;;;;;;;4.97;1.90;;;10.40;91.70;;;;;;5101331;27;20443;-67
2022/02/03 01:56:38;;;;;;;3.13;1.30;;;10.40;91.50;;;;;;5111532;28;20416;-66
2022/02/03 01:59:24;;;;;;;3.78;1.05;;;10.30;91.00;;;;;;5099072;28;20461;-66
2022/02/03 02:02:00;;;;;;;2.03;1.42;;;10.30;90.40;;;;;;5114649;28;20035;-66
2022/02/03 02:04:54;;;;;;;2.65;1.40;;;10.30;90.10;;;;;;5116087;28;20091;-66
2022/02/03 02:07:34;;;;;;;2.60;1.15;;;10.30;90.10;;;;;;5082660;28;20047;-66
2022/02/03 02:13:03;;;;;;;2.92;1.15;;;10.30;89.60;;;;;;5132055;28;20489;-66
2022/02/03 02:38:53;;;;;;;3.70;1.90;;;10.20;85.90;;;;;;5137806;27;20092;-65
2022/02/03 02:44:47;;;;;;;2.42;1.33;;;10.10;85.80;;;;;;5119307;27;20143;-66
2022/02/03 02:47:37;;;;;;;3.42;1.63;;;10.10;85.00;;;;;;5119485;27;20035;-66
2022/02/03 02:50:43;;;;;;;3.65;1.00;;;10.10;83.80;;;;;;5122713;27;20100;-65
2022/02/03 02:56:12;;;;;;;3.63;1.02;;;10.00;81.40;;;;;;5101959;27;20068;-66
2022/02/03 03:33:05;;;;;;;3.85;1.52;;;10.00;84.40;;;;;;5115647;27;20138;-65
2022/02/03 03:38:29;;;;;;;2.88;1.33;;;9.90;85.30;;;;;;5124158;27;20126;-65
2022/02/03 03:40:58;;;;;;;3.80;1.40;;;9.90;85.50;;;;;;5136959;27;20063;-65
2022/02/03 03:43:38;;;;;;;2.35;1.58;;;9.90;85.50;;;;;;5136372;27;20396;-65
2022/02/03 03:46:24;;;;;;;3.45;1.45;;;9.90;85.20;;;;;;5136613;27;20061;-65
2022/02/03 03:49:12;;;;;;;4.28;1.25;;;9.90;84.30;;;;;;5118167;27;20081;-65
2022/02/03 03:51:55;;;;;;;2.00;1.10;;;9.90;84.00;;;;;;5084433;27;20090;-65
2022/02/03 03:54:37;;;;;;;4.97;1.58;;;9.90;84.50;;;;;;5117853;27;20416;-65
2022/02/03 03:57:39;;;;;;;5.82;1.48;;;9.90;84.50;;;;;;5118210;27;20035;-66
2022/02/03 04:42:02;;;;;;;5.07;2.15;;;9.60;85.20;;;;;;5135427;27;20059;-65
2022/02/03 05:05:35;;;;;;;5.55;2.08;;;9.50;84.70;;;;;;5135109;27;20498;-65
2022/02/03 05:11:29;;;;;;;3.78;1.55;;;9.40;85.10;;;;;;5099521;27;20049;-65
2022/02/03 05:14:56;;;;;;;9.07;1.90;;;9.40;84.60;;;;;;5135053;27;20485;-65
2022/02/03 05:24:32;;;;;;;3.63;2.03;;;9.40;83.80;;;;;;5015088;28;20041;-65
2022/02/03 05:51:16;;;;;;;4.95;1.27;;;9.50;83.70;;;;;;5128914;28;20046;-65
2022/02/03 06:04:57;;;;;;;4.82;2.42;;;9.50;84.70;;;;;;5119894;27;20043;-65
2022/02/03 06:15:31;;;;;;;4.15;1.50;;;9.50;87.80;;;;;;5138143;27;20043;-66
2022/02/03 06:29:37;;;;;;;3.15;1.83;;;9.90;86.30;;;;;;5130319;27;20400;-65
2022/02/03 06:32:05;;;;;;;4.72;1.50;;;9.80;86.30;;;;;;5119952;27;20082;-65
2022/02/03 06:34:33;;;;;;;3.55;1.35;;;9.80;86.10;;;;;;5137896;27;20043;-65
2022/02/03 06:37:00;;;;;;;6.55;1.73;;;9.80;85.90;;;;;;5119584;27;20039;-65
2022/02/03 06:39:30;;;;;;;5.93;1.85;;;9.80;85.70;;;;;;5119661;27;20081;-65
2022/02/03 06:42:00;;;;;;;3.22;1.30;;;9.80;85.50;;;;;;5119889;27;20047;-66
2022/02/03 06:44:38;;;;;;;2.80;1.60;;;9.80;85.00;;;;;;5102319;27;20105;-65
2022/02/03 06:52:21;;;;;;;2.97;1.23;;;10.00;84.60;;;;;;5137794;27;20039;-65
2022/02/03 06:57:24;;;;;;;4.30;1.40;;;10.20;83.70;;;;;;5102242;28;20066;-65
2022/02/03 06:59:59;;;;;;;6.78;1.38;;;10.20;83.00;;;;;;5105323;28;20086;-65
2022/02/03 07:02:30;;;;;;;4.00;1.30;;;10.10;83.60;;;;;;5100461;28;20089;-65
2022/02/03 07:04:58;;;;;;;3.08;1.20;;;10.10;83.50;;;;;;5090277;28;20036;-65
2022/02/03 07:07:26;;;;;;;5.78;1.05;;;9.90;83.30;;;;;;5113157;28;20059;-65
2022/02/03 07:09:54;;;;;;;2.33;1.00;;;10.00;83.50;;;;;;5078308;28;20440;-66
2022/02/03 07:12:22;;;;;;;7.03;1.48;;;9.90;83.20;;;;;;5085273;28;20097;-65
2022/02/03 07:14:50;;;;;;;3.88;1.58;;;10.00;83.40;;;;;;5093682;28;20106;-66
2022/02/03 07:17:17;;;;;;;7.70;2.08;;;10.20;82.40;;;;;;5079446;28;20044;-65
2022/02/03 07:19:49;;;;;;;5.85;1.70;;;10.50;81.90;;;;;;5089268;28;20563;-65
2022/02/03 07:22:17;;;;;;;2.80;1.30;;;10.50;81.70;;;;;;5106894;28;20043;-66
2022/02/03 07:24:51;;;;;;;7.00;1.65;;;10.50;81.70;;;;;;5105075;28;20059;-65
2022/02/03 07:27:23;;;;;;;4.82;1.98;;;10.40;81.90;;;;;;5094695;28;20032;-66
2022/02/03 07:29:52;;;;;;;3.05;1.65;;;10.40;82.00;;;;;;5094248;28;20039;-65
2022/02/03 07:32:22;;;;;;;5.47;1.58;;;10.60;81.90;;;;;;5074924;28;20067;-66
2022/02/03 07:34:53;;;;;;;2.47;1.40;;;10.90;81.20;;;;;;5107266;28;20040;-66
2022/02/03 07:37:23;;;;;;;2.85;1.55;;;10.90;81.30;;;;;;5106872;28;20555;-66
2022/02/03 07:39:51;;;;;;;3.53;1.63;;;11.00;80.70;;;;;;5103297;28;20075;-66
2022/02/03 07:42:19;;;;;;;3.17;1.30;;;11.10;81.00;;;;;;5100592;28;20043;-66
2022/02/03 07:44:47;;;;;;;1.80;1.20;;;11.60;80.60;;;;;;5088493;28;20059;-66
2022/02/03 07:47:15;;;;;;;4.55;1.58;;;11.90;79.60;;;;;;5082368;28;20043;-66
2022/02/03 07:49:43;;;;;;;2.10;1.23;;;12.20;78.40;;;;;;5085790;28;20044;-66
2022/02/03 07:52:11;;;;;;;5.30;2.65;;;12.60;78.00;;;;;;5054241;28;20437;-66
2022/02/03 07:54:40;;;;;;;4.75;2.08;;;12.70;77.60;;;;;;5102712;27;20124;-66
2022/02/03 07:57:08;;;;;;;5.00;2.20;;;12.60;78.10;;;;;;5116803;27;20047;-67
2022/02/03 07:59:35;;;;;;;3.45;2.05;;;12.50;78.50;;;;;;5115278;27;20043;-66
2022/02/03 08:02:03;;;;;;;5.70;1.90;;;12.80;78.90;;;;;;5116854;27;20043;-66
2022/02/03 08:04:33;;;;;;;4.53;1.30;;;12.90;78.30;;;;;;5126524;27;20523;-66
2022/02/03 08:07:01;;;;;;;3.33;1.92;;;12.70;78.20;;;;;;5103435;27;20039;-66
2022/02/03 08:09:40;;;;;;;5.75;1.85;;;12.60;78.70;;;;;;5123627;27;20500;-66
2022/02/03 08:12:11;;;;;;;6.18;2.05;;;12.70;79.50;;;;;;5129697;27;20032;-66
2022/02/03 08:14:46;;;;;;;1.98;1.40;;;12.80;79.60;;;;;;5109309;27;20500;-65
2022/02/03 08:17:20;;;;;;;3.90;1.50;;;13.10;79.20;;;;;;5124401;27;20488;-66
2022/02/03 08:19:58;;;;;;;6.38;2.40;;;13.10;77.60;;;;;;5126327;27;20062;-66
2022/02/03 08:22:32;;;;;;;7.57;2.50;;;13.50;78.30;;;;;;5118912;27;20054;-66
2022/02/03 08:25:20;;;;;;;5.00;1.88;;;13.50;77.40;;;;;;5125319;27;20069;-66
2022/02/03 08:30:37;;;;;;;3.45;1.52;;;13.70;76.00;;;;;;5117398;27;20051;-66
2022/02/03 08:33:05;;;;;;;6.63;1.70;;;13.60;75.30;;;;;;5135590;27;20089;-65
2022/02/03 08:35:41;;;;;;;3.95;1.63;;;13.70;75.10;;;;;;5135535;27;20404;-65
2022/02/03 08:43:23;;;;;;;6.05;2.28;;;13.70;75.70;;;;;;5117280;27;20039;-65
2022/02/03 08:45:51;;;;;;;9.23;3.00;;;13.80;76.80;;;;;;5135386;27;20081;-65
2022/02/03 08:48:19;;;;;;;5.75;3.08;;;13.80;75.90;;;;;;5135196;27;20047;-65
2022/02/03 08:50:47;;;;;;;3.28;1.88;;;13.80;75.80;;;;;;5117178;27;20046;-65
2022/02/03 09:37:53;;;;;;;1.60;1.27;;;13.70;72.80;;;;;;5087205;28;20423;-66
2022/02/03 09:51:57;;;;;;;2.53;1.00;;;14.20;71.90;;;;;;5117334;28;20066;-66
2022/02/03 10:00:58;;;;;;;5.68;2.25;;;14.10;73.00;;;;;;5095610;28;20047;-65
2022/02/03 10:03:36;;;;;;;3.50;2.00;;;14.40;74.00;;;;;;5078837;28;20093;-66
2022/02/03 10:08:33;;;;;;;1.48;1.20;;;14.50;72.20;;;;;;5113776;28;20036;-66
2022/02/03 10:11:19;;;;;;;4.05;1.77;;;14.50;71.80;;;;;;5079180;28;20131;-67
2022/02/03 10:13:48;;;;;;;2.65;1.67;;;14.60;72.70;;;;;;5095721;28;20048;-66
2022/02/03 10:16:19;;;;;;;4.18;1.25;;;14.70;71.20;;;;;;5078760;28;20148;-65
2022/02/03 10:18:50;;;;;;;2.25;1.40;;;14.70;71.70;;;;;;5095764;28;20082;-64
2022/02/03 10:21:21;;;;;;;3.20;1.52;;;14.80;72.90;;;;;;5113874;28;20130;-66
2022/02/03 10:23:53;;;;;;;7.07;2.15;;;14.80;73.10;;;;;;5095439;28;20097;-66
2022/02/03 10:26:22;;;;;;;3.97;1.67;;;14.70;72.90;;;;;;5078444;28;20040;-66
2022/02/03 10:28:55;;;;;;;2.85;2.03;;;14.80;73.20;;;;;;5095382;28;20047;-66
2022/02/03 10:31:34;;;;;;;3.80;1.45;;;14.90;73.60;;;;;;5113623;28;20046;-66
2022/02/03 10:34:13;;;;;;;6.18;2.15;;;15.00;73.90;;;;;;5097044;28;20135;-66
2022/02/03 10:53:37;;;;;;;2.78;1.38;;;14.40;72.70;;;;;;5099018;28;20367;-66
2022/02/03 10:56:23;;;;;;;5.82;2.30;;;14.60;72.10;;;;;;5099119;28;20058;-66
2022/02/03 10:59:11;;;;;;;4.00;1.73;;;14.50;72.30;;;;;;5081740;28;20051;-66
2022/02/03 11:04:38;;;;;;;4.03;1.30;;;14.40;73.10;;;;;;5081692;28;20047;-66
2022/02/03 11:07:25;;;;;;;3.05;1.40;;;14.30;72.60;;;;;;5098550;28;20217;-66
2022/02/03 11:12:35;;;;;;;4.32;2.58;;;14.30;72.30;;;;;;5098531;28;20062;-66
2022/02/03 11:15:04;;;;;;;5.15;1.48;;;14.50;73.00;;;;;;5081546;28;20402;-66
2022/02/03 11:17:33;;;;;;;4.88;2.00;;;14.50;71.90;;;;;;5098412;28;20493;-66
2022/02/03 11:20:05;;;;;;;3.03;1.45;;;14.60;72.70;;;;;;5116554;28;20068;-66
2022/02/03 11:22:46;;;;;;;2.15;1.33;;;14.60;71.90;;;;;;5098770;28;20078;-66
2022/02/03 12:01:14;;;;;;;3.17;2.05;;;14.30;70.80;;;;;;5095273;28;20055;-66
2022/02/03 12:18:14;;;;;;;7.18;2.75;;;14.50;72.80;;;;;;5076688;28;20102;-66
2022/02/03 12:20:59;;;;;;;5.10;1.73;;;14.30;72.10;;;;;;5095102;28;20514;-66
2022/02/03 12:26:40;;;;;;;6.45;2.25;;;14.20;72.60;;;;;;5094305;28;20101;-66
2022/02/03 12:29:14;;;;;;;3.67;1.70;;;14.20;71.90;;;;;;5076859;28;20143;-65
2022/02/03 12:39:43;;;;;;;5.70;1.70;;;14.00;72.60;;;;;;5076478;28;20044;-66
2022/02/03 12:42:32;;;;;;;4.32;1.27;;;14.10;75.70;;;;;;5076354;28;20375;-67
2022/02/03 12:45:18;;;;;;;2.58;1.30;;;14.20;73.60;;;;;;5076566;28;20043;-65
2022/02/03 12:47:48;;;;;;;4.25;1.30;;;14.10;73.20;;;;;;5059707;28;20703;-65
2022/02/03 12:50:29;;;;;;;3.13;1.40;;;14.10;73.20;;;;;;5043178;28;20139;-65
2022/02/03 12:52:58;;;;;;;3.22;1.40;;;14.00;72.60;;;;;;5094434;28;20553;-65
2022/02/03 12:55:38;;;;;;;4.35;1.88;;;13.90;72.90;;;;;;5076038;28;20048;-63
2022/02/03 12:58:13;;;;;;;5.53;1.98;;;13.90;73.70;;;;;;5094190;28;20040;-62
2022/02/03 13:01:12;;;;;;;3.90;2.30;;;14.00;74.40;;;;;;5094147;28;20040;-62
2022/02/03 13:03:46;;;;;;;3.13;2.17;;;14.00;73.60;;;;;;5092429;28;20040;-62
2022/02/03 13:06:18;;;;;;;2.13;1.50;;;13.90;72.70;;;;;;5059440;28;20055;-62
2022/02/03 13:08:51;;;;;;;3.78;1.30;;;13.80;72.10;;;;;;5075814;28;20058;-61
2022/02/03 13:17:18;;;;;;;5.00;2.10;;;13.70;75.70;;;;;;5075741;28;20051;-62
2022/02/03 13:20:20;;;;;;;2.85;1.20;;;13.50;74.00;;;;;;5061443;28;20089;-62
2022/02/03 13:25:26;;;;;;;2.38;1.88;;;13.50;71.70;;;;;;5093551;28;20048;-62
2022/02/03 13:28:03;;;;;;;4.28;1.50;;;13.40;71.70;;;;;;5093805;28;20054;-62
2022/02/03 13:33:13;;;;;;;2.47;1.38;;;13.20;72.20;;;;;;5093715;28;20389;-62
2022/02/03 13:35:50;;;;;;;5.55;3.17;;;13.20;72.70;;;;;;5075475;28;20051;-63
2022/02/03 13:38:34;;;;;;;4.28;2.00;;;13.20;73.80;;;;;;5093570;28;20067;-62
2022/02/03 13:41:12;;;;;;;4.35;1.90;;;13.10;73.10;;;;;;5075588;28;20063;-62
2022/02/03 13:43:42;;;;;;;4.78;1.63;;;13.00;73.60;;;;;;5093560;28;20048;-62
2022/02/03 13:46:13;;;;;;;3.72;1.77;;;13.20;74.30;;;;;;5075470;28;20044;-62
2022/02/03 13:48:41;;;;;;;4.00;2.45;;;13.10;74.40;;;;;;5075805;28;20055;-62
2022/02/03 13:51:10;;;;;;;7.55;2.22;;;13.10;74.10;;;;;;5075947;28;20040;-62
2022/02/03 13:53:48;;;;;;;4.57;1.65;;;13.00;75.10;;;;;;5075886;28;20055;-62
2022/02/03 14:21:17;;;;;;;2.60;1.30;;;12.80;75.40;;;;;;5097247;28;20366;-63
2022/02/03 14:29:24;;;;;;;6.10;1.50;;;12.60;74.90;;;;;;5079459;28;20103;-62
2022/02/03 14:32:06;;;;;;;5.30;1.88;;;12.60;74.70;;;;;;5062069;28;20135;-62
2022/02/03 14:34:36;;;;;;;4.32;1.98;;;12.40;74.50;;;;;;5079479;28;20051;-63
2022/02/03 14:39:59;;;;;;;8.18;2.60;;;12.30;73.50;;;;;;5062439;28;20044;-62
2022/02/03 14:42:31;;;;;;;5.60;1.95;;;12.30;73.60;;;;;;5096731;28;20105;-63
2022/02/03 14:44:59;;;;;;;4.10;1.80;;;12.30;73.20;;;;;;5078864;28;20436;-62
2022/02/03 14:47:29;;;;;;;3.08;2.10;;;12.40;74.10;;;;;;5078710;28;20407;-63
2022/02/03 14:50:02;;;;;;;3.13;1.77;;;12.30;74.70;;;;;;5079034;28;20043;-63
2022/02/03 14:58:03;;;;;;;5.00;2.92;;;12.20;74.90;;;;;;5096795;28;20568;-63
2022/02/03 15:00:33;;;;;;;7.30;3.97;;;12.20;74.90;;;;;;5078647;28;20044;-63
2022/02/03 15:03:01;;;;;;;5.85;2.17;;;12.20;74.80;;;;;;5096554;28;20141;-63
2022/02/03 15:05:35;;;;;;;7.20;1.75;;;12.10;74.30;;;;;;5078504;28;20036;-64
2022/02/03 15:08:04;;;;;;;2.50;1.40;;;12.00;74.00;;;;;;5078423;28;20040;-63
2022/02/03 15:15:42;;;;;;;3.28;1.60;;;12.10;77.30;;;;;;5078096;28;20110;-63
2022/02/03 15:18:10;;;;;;;4.75;2.28;;;12.20;79.10;;;;;;5078253;28;20032;-64
2022/02/03 15:20:39;;;;;;;9.00;2.78;;;12.30;79.00;;;;;;5077896;28;20048;-63
2022/02/03 15:23:08;;;;;;;5.57;3.13;;;12.10;75.30;;;;;;5061589;28;20097;-63
2022/02/03 15:25:35;;;;;;;6.97;2.80;;;12.10;74.80;;;;;;5078290;28;20131;-63
2022/02/03 15:28:03;;;;;;;8.05;2.70;;;12.00;74.90;;;;;;5077376;28;20062;-62
2022/02/03 15:30:31;;;;;;;5.47;2.35;;;11.90;73.60;;;;;;5095952;28;20044;-62
2022/02/03 15:32:59;;;;;;;6.80;2.85;;;11.80;73.70;;;;;;5077558;28;20051;-62
2022/02/03 15:35:39;;;;;;;9.70;3.08;;;11.80;73.50;;;;;;5078287;28;20040;-63
2022/02/03 15:38:12;;;;;;;7.43;2.70;;;11.80;73.00;;;;;;5061599;28;20056;-62
2022/02/03 15:40:40;;;;;;;5.05;2.53;;;11.70;72.60;;;;;;5078243;28;20059;-63
2022/02/03 15:43:24;;;;;;;2.80;2.00;;;11.70;73.00;;;;;;5077883;28;20051;-63
2022/02/03 15:45:57;;;;;;;4.32;2.28;;;11.70;73.00;;;;;;5095869;28;20051;-63
2022/02/03 15:56:32;;;;;;;8.60;3.97;;;11.60;74.80;;;;;;5097723;28;20062;-64
2022/02/03 16:00:14;;;;;;;8.23;3.55;;;11.60;75.00;;;;;;5115709;28;20332;-63
2022/02/03 16:18:21;;;;;;;13.82;5.60;;;11.50;76.90;;;;;;5115553;28;20043;-64
2022/02/03 16:21:01;;;;;;;11.13;5.65;;;11.50;77.20;;;;;;5097446;28;20047;-63
2022/02/03 16:26:57;;;;;;;6.60;3.30;;;11.50;77.10;;;;;;5091713;28;20435;-64
2022/02/03 16:40:57;;;;;;;11.18;4.00;;;11.50;77.10;;;;;;5079877;28;20494;-63
2022/02/03 16:54:16;;;;;;;7.60;4.93;;;11.30;77.30;;;;;;5079712;28;20087;-63
2022/02/03 16:56:48;;;;;;;10.77;6.28;;;11.30;77.70;;;;;;5096747;28;20077;-62
2022/02/03 16:59:15;;;;;;;7.78;5.68;;;11.20;78.20;;;;;;5114922;28;20043;-62
2022/02/03 17:01:44;;;;;;;8.57;4.88;;;11.20;78.20;;;;;;5096635;28;20044;-62
2022/02/03 17:04:17;;;;;;;5.63;3.30;;;11.20;78.50;;;;;;5096698;28;20047;-62
2022/02/03 17:06:45;;;;;;;7.18;4.00;;;11.20;78.70;;;;;;5114510;28;20096;-63
2022/02/03 17:09:14;;;;;;;7.25;3.00;;;11.20;78.30;;;;;;5096312;28;20083;-63
2022/02/03 17:11:41;;;;;;;5.80;2.40;;;11.20;78.50;;;;;;5096680;28;20444;-63
2022/02/03 17:14:09;;;;;;;5.47;3.15;;;11.20;79.20;;;;;;5096263;28;20093;-63
2022/02/03 17:16:37;;;;;;;6.82;2.92;;;11.20;78.90;;;;;;5079607;28;20052;-63
2022/02/03 17:19:04;;;;;;;4.85;3.33;;;11.20;78.70;;;;;;5114426;28;20070;-63
2022/02/03 17:21:32;;;;;;;6.65;3.50;;;11.20;78.20;;;;;;5114305;28;20066;-63
2022/02/03 17:24:01;;;;;;;4.85;3.35;;;11.20;78.40;;;;;;5114159;28;20128;-63
2022/02/03 17:29:13;;;;;;;5.90;3.15;;;11.20;82.60;;;;;;5114397;28;20477;-62
2022/02/03 18:07:39;;;;;;;8.73;5.10;;;11.10;77.50;;;;;;5117988;28;20078;-51
2022/02/03 18:36:55;;;;;;;7.65;4.30;;;10.60;78.20;;;;;;5117146;28;20052;-50
2022/02/03 18:50:36;;;;;;;11.70;6.82;;;10.60;78.70;;;;;;5116953;28;20047;-50
2022/02/03 20:11:37;;;;;;;6.43;3.00;;;10.30;77.70;;;;;;5133608;27;20042;-51
2022/02/03 20:14:14;;;;;;;6.47;3.53;;;10.30;78.00;;;;;;5134639;27;20045;-49
2022/02/03 20:16:43;;;;;;;5.72;2.80;;;10.30;77.90;;;;;;5133343;27;20130;-50
2022/02/03 20:19:11;;;;;;;5.38;2.88;;;10.30;78.40;;;;;;5115607;27;20393;-54
2022/02/03 20:21:41;;;;;;;4.95;3.78;;;10.30;78.30;;;;;;5097407;27;20054;-49
2022/02/03 20:24:09;;;;;;;9.63;3.67;;;10.20;78.50;;;;;;5134157;27;20042;-50
2022/02/03 20:26:41;;;;;;;9.68;4.53;;;10.20;78.90;;;;;;5128451;27;20503;-53
2022/02/03 20:29:09;;;;;;;7.05;3.55;;;10.20;79.00;;;;;;5133118;27;20043;-52
2022/02/03 20:31:37;;;;;;;7.75;3.22;;;10.20;79.20;;;;;;5129967;27;20058;-51
2022/02/03 20:34:05;;;;;;;8.00;2.83;;;10.20;79.30;;;;;;5103047;27;20036;-50
2022/02/03 20:36:33;;;;;;;5.45;2.95;;;10.20;79.50;;;;;;5133260;27;20050;-52
2022/02/03 20:39:01;;;;;;;6.70;3.28;;;10.10;79.70;;;;;;5133165;27;20493;-51
2022/02/03 20:41:29;;;;;;;5.35;2.75;;;10.20;79.80;;;;;;5123582;27;20054;-49
2022/02/03 20:43:56;;;;;;;8.32;3.15;;;10.10;79.80;;;;;;5132640;27;20039;-50
2022/02/03 20:46:25;;;;;;;5.60;3.08;;;10.10;79.70;;;;;;5126753;27;20038;-51
2022/02/03 20:48:53;;;;;;;5.97;3.42;;;10.10;79.50;;;;;;5133913;27;20092;-49
2022/02/03 20:51:21;;;;;;;8.60;3.70;;;10.10;79.40;;;;;;5131547;27;20031;-51
2022/02/03 20:53:50;;;;;;;7.15;4.68;;;10.10;79.40;;;;;;5133657;27;20126;-49
2022/02/03 20:56:19;;;;;;;7.28;5.68;;;10.00;79.30;;;;;;5132152;27;20055;-49
2022/02/03 20:58:49;;;;;;;10.20;5.57;;;10.00;79.30;;;;;;5115295;27;20042;-52
2022/02/03 21:01:25;;;;;;;7.80;4.82;;;9.90;79.20;;;;;;5110765;28;20380;-50
2022/02/03 21:03:59;;;;;;;10.13;5.72;;;9.90;79.30;;;;;;5131022;27;20039;-51
2022/02/03 21:06:27;;;;;;;7.95;5.20;;;9.90;79.50;;;;;;5124714;27;20039;-50
2022/02/03 21:08:55;;;;;;;11.43;5.78;;;9.90;79.50;;;;;;5131668;27;20050;-50
2022/02/03 21:11:23;;;;;;;7.65;4.75;;;9.90;79.80;;;;;;5128419;27;20031;-50
2022/02/03 21:13:54;;;;;;;8.68;5.03;;;9.90;79.90;;;;;;5121741;27;20043;-53
2022/02/03 21:16:21;;;;;;;5.15;3.80;;;9.90;79.60;;;;;;5111274;28;20047;-53
2022/02/03 21:18:50;;;;;;;6.70;3.50;;;9.90;79.50;;;;;;5107337;28;20044;-52
2022/02/03 21:21:18;;;;;;;5.00;3.05;;;9.90;79.50;;;;;;5116882;27;20494;-50
2022/02/03 21:23:45;;;;;;;7.90;2.70;;;9.90;79.50;;;;;;5132927;27;20039;-49
2022/02/03 21:26:21;;;;;;;9.30;3.40;;;9.90;79.60;;;;;;5131701;27;20039;-50
2022/02/03 21:28:49;;;;;;;4.72;3.47;;;9.90;79.60;;;;;;5133108;27;20563;-50
2022/02/03 21:31:17;;;;;;;6.63;3.92;;;9.90;79.70;;;;;;5130002;27;20118;-50
2022/02/03 21:33:48;;;;;;;6.47;3.78;;;9.80;79.80;;;;;;5132943;27;20547;-50
2022/02/03 21:36:18;;;;;;;6.88;4.07;;;9.80;80.00;;;;;;5131892;27;20039;-53
2022/02/03 21:38:47;;;;;;;9.50;4.60;;;9.70;80.70;;;;;;5133159;27;20047;-50
2022/02/03 21:41:17;;;;;;;6.15;3.75;;;9.70;80.70;;;;;;5131558;27;20481;-52
2022/02/03 21:43:48;;;;;;;7.40;4.63;;;9.70;80.70;;;;;;5110996;27;20035;-52
2022/02/03 21:46:17;;;;;;;9.15;4.57;;;9.70;80.70;;;;;;5124709;27;20089;-52
2022/02/03 21:48:49;;;;;;;7.97;4.53;;;9.70;81.10;;;;;;5121114;28;20043;-49
2022/02/03 21:51:22;;;;;;;10.95;5.13;;;9.70;81.50;;;;;;5128291;28;20492;-53
2022/02/03 21:53:51;;;;;;;11.13;6.60;;;9.60;81.70;;;;;;5133300;28;20125;-49
2022/02/03 21:56:20;;;;;;;11.35;6.30;;;9.60;81.70;;;;;;5119118;28;20464;-52
2022/02/03 21:58:48;;;;;;;8.90;5.25;;;9.60;82.50;;;;;;5112140;28;20043;-52
2022/02/03 22:01:17;;;;;;;6.00;4.60;;;9.60;82.10;;;;;;5103416;28;20082;-50
2022/02/03 22:03:45;;;;;;;8.50;4.30;;;9.50;82.40;;;;;;5092425;28;20047;-51
2022/02/03 22:06:12;;;;;;;5.13;3.40;;;9.50;82.50;;;;;;5113120;28;20081;-49
2022/02/03 22:08:40;;;;;;;5.18;3.13;;;9.50;82.50;;;;;;5112403;28;20032;-50
2022/02/03 22:11:08;;;;;;;5.93;2.95;;;9.40;82.70;;;;;;5074820;28;20047;-51
2022/02/03 22:13:38;;;;;;;4.72;2.67;;;9.40;82.70;;;;;;5094197;28;20165;-50
2022/02/03 22:16:13;;;;;;;3.83;2.72;;;9.40;82.80;;;;;;5117529;28;20104;-50
2022/02/03 22:18:41;;;;;;;5.50;2.63;;;9.40;82.90;;;;;;5117264;28;20044;-49
2022/02/03 22:21:17;;;;;;;5.90;3.28;;;9.30;83.00;;;;;;5093301;28;20057;-57
2022/02/03 22:43:00;;;;;;;8.23;6.00;;;8.60;84.50;;;;;;5104877;28;20035;-50
2022/02/03 22:45:46;;;;;;;12.43;6.97;;;8.50;84.60;;;;;;5101239;28;20078;-51
2022/02/03 22:50:52;;;;;;;9.60;7.80;;;8.50;85.10;;;;;;5101127;28;20562;-49
2022/02/03 22:53:20;;;;;;;15.35;9.13;;;8.40;85.30;;;;;;5068795;28;20466;-50
2022/02/03 22:55:48;;;;;;;15.65;8.60;;;8.40;85.30;;;;;;5119462;27;20044;-50
2022/02/03 23:00:59;;;;;;;18.35;12.32;;;8.30;85.50;;;;;;5131826;27;20504;-54
2022/02/03 23:03:29;;;;;;;17.38;10.73;;;8.30;85.30;;;;;;5130662;27;20043;-48
2022/02/03 23:05:58;;;;;;;18.15;9.75;;;8.30;85.50;;;;;;5134914;27;20558;-50
2022/02/03 23:16:34;;;;;;;10.98;4.93;;;7.90;86.00;;;;;;5133571;27;20087;-50
2022/02/03 23:19:29;;;;;;;13.30;5.93;;;7.90;86.20;;;;;;5135874;27;20047;-50
2022/02/03 23:22:04;;;;;;;9.48;5.18;;;7.90;86.70;;;;;;5134209;27;20035;-49
2022/02/03 23:24:31;;;;;;;9.32;6.18;;;7.90;86.70;;;;;;5123830;27;20039;-49
2022/02/03 23:27:21;;;;;;;8.00;4.32;;;7.90;86.90;;;;;;5134502;27;20034;-49
2022/02/03 23:29:48;;;;;;;9.73;4.65;;;7.90;87.00;;;;;;5135429;27;20540;-53
2022/02/03 23:32:16;;;;;;;10.15;5.40;;;7.80;87.00;;;;;;5130363;27;20038;-51
2022/02/03 23:34:49;;;;;;;6.45;5.40;;;7.90;87.00;;;;;;5135705;27;20140;-52
2022/02/03 23:37:17;;;;;;;8.30;5.18;;;7.90;87.00;;;;;;5131628;27;20039;-56
2022/02/03 23:40:04;;;;;;;10.95;5.30;;;7.90;86.50;;;;;;5136079;27;20121;-50
2022/02/03 23:46:12;;;;;;;6.60;4.07;;;7.70;87.00;;;;;;5134660;27;20163;-52
